Allegre, Kentucky
Current Conditions -  °F | °C
As of 4:14 AM on Thursday 27 Nov 2014 (Local Time) from KHOP Reporting Station
Overcast Overcast  
Wind Chill: 27°   Ceiling: 700
Heat Index: 36°   Visibility: 10mi
Dew Point: 36°   Wind: 13mph
Humidity: 100%   Direction: 310°NW
Pressure: 30.23"   Gusts: NA
Location:  36.93°N, 87.22°W
Report Text: KHOP 271014Z AUTO 31011KT 10SM OVC007 02/02 A3023 RMK AO2 CIG 007V009
Loading
Personal Weather Stations






























Interactive Weather Map New forecast layout! Learn more

10-Day Weather Forecast

Advertisements
Track Severe Weather on mobile